createdAt,value
2018-12-13T00:00:13.565Z,28.87
2018-12-13T00:02:42.007Z,26.87
2018-12-13T00:05:10.367Z,26.57
2018-12-13T00:07:39.055Z,30.85
2018-12-13T00:10:07.690Z,21.12
2018-12-13T00:12:36.083Z,27.42
2018-12-13T00:15:05.077Z,26.25
2018-12-13T00:17:33.482Z,35.88
2018-12-13T00:20:01.835Z,29.15
2018-12-13T00:22:30.245Z,28.40
2018-12-13T00:24:58.626Z,29.20
2018-12-13T00:27:27.012Z,29.87
2018-12-13T00:29:55.696Z,26.37
2018-12-13T00:32:24.364Z,32.70
2018-12-13T00:34:53.024Z,27.17
2018-12-13T00:37:21.418Z,28.50
2018-12-13T00:39:49.790Z,25.37
2018-12-13T00:42:18.274Z,21.65
2018-12-13T00:44:46.660Z,26.95
2018-12-13T00:47:15.031Z,25.77
2018-12-13T00:49:43.396Z,24.05
2018-12-13T00:52:11.785Z,29.75
2018-12-13T00:54:40.370Z,29.55
2018-12-13T00:57:08.728Z,26.97
2018-12-13T00:59:37.127Z,24.70
2018-12-13T01:02:05.482Z,24.05
2018-12-13T01:04:33.865Z,31.60
2018-12-13T01:07:02.254Z,22.17
2018-12-13T01:09:30.618Z,33.23
2018-12-13T01:11:58.978Z,30.65
2018-12-13T01:14:27.348Z,26.62
2018-12-13T01:16:55.723Z,29.42
2018-12-13T01:19:24.147Z,31.40
2018-12-13T01:21:52.537Z,27.65
2018-12-13T01:24:20.906Z,31.97
2018-12-13T01:26:49.270Z,29.98
2018-12-13T01:29:17.661Z,25.95
2018-12-13T01:31:46.021Z,25.10
2018-12-13T01:34:14.378Z,31.65
2018-12-13T01:36:42.780Z,25.62
2018-12-13T01:39:11.512Z,49.20
2018-12-13T01:41:39.923Z,80.53
2018-12-13T01:44:08.303Z,38.42
2018-12-13T01:46:36.669Z,39.75
2018-12-13T01:49:05.323Z,36.30
2018-12-13T01:51:33.774Z,34.63
2018-12-13T01:54:02.138Z,36.03
2018-12-13T01:56:30.491Z,36.77
2018-12-13T01:58:58.852Z,40.63
2018-12-13T02:01:27.220Z,28.52
2018-12-13T02:03:55.573Z,35.68
2018-12-13T02:06:23.953Z,28.98
2018-12-13T02:08:52.300Z,23.57
2018-12-13T02:11:20.668Z,25.43
2018-12-13T02:13:49.074Z,35.43
2018-12-13T02:16:17.451Z,20.05
2018-12-13T02:18:45.801Z,30.75
2018-12-13T02:21:14.216Z,26.35
2018-12-13T02:23:42.561Z,26.77
2018-12-13T02:26:11.351Z,29.80
2018-12-13T02:28:39.754Z,31.00
2018-12-13T02:31:08.132Z,30.68
2018-12-13T02:33:36.810Z,21.90
2018-12-13T02:36:05.236Z,38.45
2018-12-13T02:38:34.232Z,36.17
2018-12-13T02:41:02.592Z,29.55
2018-12-13T02:43:30.969Z,35.58
2018-12-13T02:45:59.322Z,36.28
2018-12-13T02:48:27.663Z,38.30
2018-12-13T02:50:56.052Z,47.13
2018-12-13T02:53:24.475Z,37.40
2018-12-13T02:55:52.830Z,37.70
2018-12-13T02:58:21.229Z,30.50
2018-12-13T03:00:49.588Z,33.18
2018-12-13T03:03:18.263Z,32.03
2018-12-13T03:05:46.659Z,39.00
2018-12-13T03:08:15.031Z,35.48
2018-12-13T03:10:43.383Z,31.40
2018-12-13T03:13:11.765Z,44.83
2018-12-13T03:15:40.140Z,45.33
2018-12-13T03:18:08.541Z,32.30
2018-12-13T03:20:36.942Z,35.35
2018-12-13T03:23:05.431Z,34.35
2018-12-13T03:25:33.802Z,30.88
2018-12-13T03:28:02.305Z,31.75
2018-12-13T03:30:30.774Z,34.78
2018-12-13T03:32:59.127Z,33.40
2018-12-13T03:35:27.839Z,40.63
2018-12-13T03:37:56.215Z,34.18
2018-12-13T03:40:24.562Z,34.50
2018-12-13T03:42:52.943Z,34.75
2018-12-13T03:45:21.308Z,41.68
2018-12-13T03:47:49.651Z,38.28
2018-12-13T03:50:18.028Z,33.58
2018-12-13T03:52:46.388Z,35.70
2018-12-13T03:55:14.759Z,42.10
2018-12-13T03:57:43.263Z,49.90
2018-12-13T04:00:11.632Z,33.35
2018-12-13T04:02:39.977Z,39.63
2018-12-13T04:05:08.373Z,38.85
2018-12-13T04:07:36.849Z,36.33
2018-12-13T04:10:05.367Z,33.15
2018-12-13T04:12:33.771Z,41.68
2018-12-13T04:15:02.103Z,39.42
2018-12-13T04:17:30.481Z,49.10
2018-12-13T04:19:58.861Z,45.90
2018-12-13T04:22:27.211Z,36.75
2018-12-13T04:24:55.589Z,34.75
2018-12-13T04:27:23.966Z,44.42
2018-12-13T04:29:52.338Z,38.38
2018-12-13T04:32:20.725Z,34.60
2018-12-13T04:34:49.241Z,32.90
2018-12-13T04:37:17.587Z,34.03
2018-12-13T04:39:45.955Z,42.48
2018-12-13T04:42:14.330Z,36.33
2018-12-13T04:44:42.673Z,41.65
2018-12-13T04:47:11.033Z,39.85
2018-12-13T04:49:39.440Z,35.78
2018-12-13T04:52:07.806Z,41.65
2018-12-13T04:54:36.172Z,39.67
2018-12-13T04:57:04.542Z,50.05
2018-12-13T04:59:32.896Z,40.20
2018-12-13T05:02:01.246Z,38.95
2018-12-13T05:04:29.628Z,34.05
2018-12-13T05:06:58.194Z,46.63
2018-12-13T05:09:26.560Z,35.15
2018-12-13T05:11:54.943Z,37.28
2018-12-13T05:14:23.311Z,43.02
2018-12-13T05:16:51.667Z,42.25
2018-12-13T05:19:20.056Z,35.80
2018-12-13T05:21:48.462Z,42.45
2018-12-13T05:24:16.862Z,52.45
2018-12-13T05:26:45.242Z,44.70
2018-12-13T05:29:13.923Z,38.28
2018-12-13T05:31:42.302Z,47.17
2018-12-13T05:34:10.738Z,61.70
2018-12-13T05:36:39.290Z,50.43
2018-12-13T05:39:08.371Z,43.75
2018-12-13T05:41:36.755Z,50.73
2018-12-13T05:44:05.127Z,39.58
2018-12-13T05:46:33.606Z,54.30
2018-12-13T05:49:01.992Z,51.45
2018-12-13T05:51:30.357Z,44.65
2018-12-13T05:53:58.825Z,48.68
2018-12-13T05:56:27.205Z,46.00
2018-12-13T05:58:55.572Z,49.13
2018-12-13T06:01:24.123Z,56.73
2018-12-13T06:03:52.500Z,51.58
2018-12-13T06:06:21.028Z,40.12
2018-12-13T06:08:49.797Z,46.85
2018-12-13T06:11:18.242Z,39.20
2018-12-13T06:13:46.914Z,49.08
2018-12-13T06:16:15.342Z,50.90
2018-12-13T06:18:43.813Z,32.48
2018-12-13T06:21:12.359Z,46.98
2018-12-13T06:23:41.318Z,42.70
2018-12-13T06:26:09.705Z,44.63
2018-12-13T06:28:38.068Z,46.60
2018-12-13T06:31:06.421Z,43.42
2018-12-13T06:33:34.827Z,34.92
2018-12-13T06:36:03.316Z,43.42
2018-12-13T06:38:31.971Z,48.23
2018-12-13T06:41:00.371Z,46.98
2018-12-13T06:43:28.733Z,43.02
2018-12-13T06:45:57.070Z,43.52
2018-12-13T06:48:25.513Z,39.35
2018-12-13T06:50:54.094Z,45.70
2018-12-13T06:53:22.445Z,43.15
2018-12-13T06:55:50.930Z,45.58
2018-12-13T06:58:19.288Z,35.83
2018-12-13T07:00:47.652Z,38.92
2018-12-13T07:03:16.282Z,26.90
2018-12-13T07:05:44.727Z,36.85
2018-12-13T07:08:13.117Z,43.15
2018-12-13T07:10:41.518Z,43.48
2018-12-13T07:13:09.882Z,42.30
2018-12-13T07:15:38.223Z,36.75
2018-12-13T07:18:06.760Z,46.88
2018-12-13T07:20:35.125Z,45.70
2018-12-13T07:23:03.501Z,40.38
2018-12-13T07:25:31.908Z,38.70
2018-12-13T07:28:00.272Z,36.75
2018-12-13T07:30:28.899Z,55.90
2018-12-13T07:32:57.523Z,35.95
2018-12-13T07:35:25.878Z,36.33
2018-12-13T07:37:54.250Z,40.00
2018-12-13T07:40:22.643Z,38.33
2018-12-13T07:42:51.018Z,37.00
2018-12-13T07:45:19.371Z,38.42
2018-12-13T07:47:47.873Z,38.85
2018-12-13T07:50:16.479Z,42.20
2018-12-13T07:52:44.856Z,37.17
2018-12-13T07:55:13.596Z,43.02
2018-12-13T07:57:41.957Z,38.92
2018-12-13T08:00:11.556Z,41.85
2018-12-13T08:02:39.948Z,46.60
2018-12-13T08:05:08.686Z,33.67
2018-12-13T08:07:37.044Z,46.18
2018-12-13T08:10:06.074Z,41.70
2018-12-13T08:12:34.450Z,42.80
2018-12-13T08:15:02.809Z,35.30
2018-12-13T08:17:31.210Z,37.85
2018-12-13T08:19:59.572Z,38.02
2018-12-13T08:22:28.208Z,35.78
2018-12-13T08:24:56.615Z,37.93
2018-12-13T08:27:24.992Z,34.90
2018-12-13T08:29:53.404Z,39.95
2018-12-13T08:32:21.778Z,34.80
2018-12-13T08:34:50.146Z,32.42
2018-12-13T08:37:18.482Z,30.90
2018-12-13T08:39:46.927Z,33.38
2018-12-13T08:42:15.495Z,31.55
2018-12-13T08:44:43.877Z,38.58
2018-12-13T08:47:12.280Z,33.33
2018-12-13T08:49:40.637Z,24.85
2018-12-13T08:52:09.012Z,25.97
2018-12-13T08:54:37.757Z,39.05
2018-12-13T08:57:06.117Z,22.62
2018-12-13T08:59:34.525Z,27.07
2018-12-13T09:02:02.962Z,24.12
2018-12-13T09:04:31.592Z,23.62
2018-12-13T09:07:00.137Z,30.97
2018-12-13T09:09:28.686Z,20.97
2018-12-13T09:11:57.308Z,23.25
2018-12-13T09:14:25.653Z,16.82
2018-12-13T09:16:54.090Z,20.55
2018-12-13T09:19:22.458Z,28.47
2018-12-13T09:21:50.803Z,20.90
2018-12-13T09:24:19.196Z,26.57
2018-12-13T09:26:47.571Z,21.05
2018-12-13T09:29:15.983Z,34.33
2018-12-13T09:31:44.371Z,20.23
2018-12-13T09:34:12.734Z,27.05
2018-12-13T09:36:41.106Z,19.85
2018-12-13T09:39:09.483Z,28.23
2018-12-13T09:41:37.833Z,21.55
2018-12-13T09:44:08.227Z,22.42
2018-12-13T09:46:36.820Z,19.42
2018-12-13T09:49:05.632Z,22.50
2018-12-13T09:51:34.167Z,19.23
2018-12-13T09:54:03.643Z,24.05
2018-12-13T09:56:32.189Z,22.48
2018-12-13T09:59:00.548Z,23.70
2018-12-13T10:04:24.273Z,19.27
2018-12-13T10:06:52.800Z,23.50
2018-12-13T10:09:22.035Z,19.25
2018-12-13T10:11:50.430Z,26.68
2018-12-13T10:14:18.853Z,20.88
2018-12-13T10:16:47.295Z,18.73
2018-12-13T10:19:15.711Z,16.00
2018-12-13T10:21:44.123Z,16.25
2018-12-13T10:24:12.548Z,18.20
2018-12-13T10:26:40.953Z,14.40
2018-12-13T10:29:09.393Z,18.27
2018-12-13T10:31:37.994Z,18.00
2018-12-13T10:34:07.513Z,18.45
2018-12-13T10:36:36.133Z,18.62
2018-12-13T10:39:07.680Z,21.17
2018-12-13T10:41:37.029Z,13.30
2018-12-13T10:44:05.474Z,19.23
2018-12-13T10:46:33.869Z,15.65
2018-12-13T10:49:02.320Z,17.55
2018-12-13T10:51:30.732Z,15.38
2018-12-13T10:53:59.131Z,9.98
2018-12-13T10:56:27.600Z,14.03
2018-12-13T10:58:57.768Z,13.80
2018-12-13T11:01:31.576Z,17.45
2018-12-13T11:03:59.965Z,19.98
2018-12-13T11:06:28.387Z,15.10
2018-12-13T11:08:59.538Z,13.55
2018-12-13T11:11:27.240Z,12.25
2018-12-13T11:13:55.642Z,15.68
2018-12-13T11:16:24.081Z,15.85
2018-12-13T11:18:52.621Z,11.40
2018-12-13T11:21:21.051Z,18.37
2018-12-13T11:23:49.528Z,17.12
2018-12-13T11:26:18.076Z,13.58
2018-12-13T11:29:55.911Z,13.80
2018-12-13T11:32:24.821Z,18.25
2018-12-13T11:34:53.217Z,12.55
2018-12-13T11:37:21.645Z,16.75
2018-12-13T11:39:50.099Z,13.65
2018-12-13T11:42:18.552Z,8.05
2018-12-13T11:44:46.964Z,17.05
2018-12-13T11:47:15.386Z,9.15
2018-12-13T11:49:43.772Z,16.95
2018-12-13T11:52:12.196Z,20.17
2018-12-13T11:54:44.274Z,23.50
2018-12-13T11:57:13.020Z,14.03
2018-12-13T11:59:41.442Z,11.48
2018-12-13T12:02:09.862Z,19.32
2018-12-13T12:04:39.276Z,18.65
2018-12-13T12:07:07.694Z,23.00
2018-12-13T12:09:36.114Z,13.88
2018-12-13T12:12:04.567Z,12.40
2018-12-13T12:14:33.002Z,14.47
2018-12-13T12:17:01.684Z,16.32
2018-12-13T12:19:30.133Z,17.07
2018-12-13T12:21:58.592Z,15.28
2018-12-13T12:24:27.064Z,16.10
2018-12-13T12:26:55.550Z,10.13
2018-12-13T12:29:23.999Z,14.15
2018-12-13T12:31:52.422Z,14.68
2018-12-13T12:34:20.873Z,19.30
2018-12-13T12:36:49.328Z,12.63
2018-12-13T12:39:18.763Z,9.28
2018-12-13T12:41:47.398Z,13.78
2018-12-13T12:44:15.851Z,15.40
2018-12-13T12:46:44.303Z,11.08
2018-12-13T12:49:12.743Z,13.28
2018-12-13T12:51:42.228Z,11.68
2018-12-13T12:54:10.650Z,14.30
2018-12-13T12:56:39.075Z,15.43
2018-12-13T12:59:07.502Z,10.68
2018-12-13T13:01:35.959Z,9.35
2018-12-13T13:04:04.527Z,21.12
2018-12-13T13:06:32.941Z,11.33
2018-12-13T13:09:01.379Z,11.00
2018-12-13T13:11:29.805Z,11.33
2018-12-13T13:13:58.263Z,10.58
2018-12-13T13:16:26.956Z,15.45
2018-12-13T13:18:55.385Z,12.15
2018-12-13T13:21:23.822Z,11.75
2018-12-13T13:23:52.246Z,10.93
2018-12-13T13:26:20.696Z,10.88
2018-12-13T13:28:49.205Z,13.62
2018-12-13T13:31:17.789Z,10.65
2018-12-13T13:33:46.322Z,13.00
2018-12-13T13:36:14.850Z,12.03
2018-12-13T13:38:49.568Z,12.95
2018-12-13T13:41:18.067Z,17.00
2018-12-13T13:43:46.561Z,9.48
2018-12-13T13:46:15.065Z,20.75
2018-12-13T13:48:43.550Z,13.20
2018-12-13T13:51:12.007Z,15.30
2018-12-13T13:53:40.497Z,14.13
2018-12-13T13:56:08.933Z,11.55
2018-12-13T13:58:37.415Z,21.80
2018-12-13T14:01:05.867Z,15.15
2018-12-13T14:03:34.327Z,11.55
2018-12-13T14:06:02.746Z,21.05
2018-12-13T14:08:31.202Z,20.25
2018-12-13T14:10:59.647Z,15.35
2018-12-13T14:13:28.640Z,14.85
2018-12-13T14:15:57.266Z,14.68
2018-12-13T14:18:25.675Z,15.25
2018-12-13T14:20:54.126Z,17.60
2018-12-13T14:23:22.810Z,13.50
2018-12-13T14:25:51.229Z,15.50
2018-12-13T14:28:19.641Z,16.05
2018-12-13T14:30:48.150Z,12.35
2018-12-13T14:33:17.182Z,16.37
2018-12-13T14:35:45.579Z,11.78
2018-12-13T14:38:15.745Z,14.05
2018-12-13T14:40:44.150Z,14.98
2018-12-13T14:43:12.554Z,12.15
2018-12-13T14:45:40.977Z,14.63
2018-12-13T14:48:10.967Z,14.23
2018-12-13T14:50:39.391Z,14.85
2018-12-13T14:53:07.821Z,10.53
2018-12-13T14:55:36.283Z,14.87
2018-12-13T14:58:04.692Z,17.45
2018-12-13T15:00:33.153Z,17.45
2018-12-13T15:03:01.596Z,14.95
2018-12-13T15:05:30.030Z,14.65
2018-12-13T15:08:00.190Z,11.78
2018-12-13T15:10:28.570Z,9.83
2018-12-13T15:12:56.930Z,22.20
2018-12-13T15:15:25.383Z,15.88
2018-12-13T15:17:53.751Z,15.88
2018-12-13T15:20:22.114Z,16.23
2018-12-13T15:22:50.512Z,12.15
2018-12-13T15:25:18.876Z,13.13
2018-12-13T15:27:47.520Z,12.85
2018-12-13T15:30:15.899Z,16.97
2018-12-13T15:32:44.301Z,18.20
2018-12-13T15:35:12.654Z,16.62
2018-12-13T15:37:41.043Z,20.52
2018-12-13T15:40:09.516Z,15.88
2018-12-13T15:42:37.899Z,19.23
2018-12-13T15:45:07.616Z,21.68
2018-12-13T15:47:36.148Z,18.75
2018-12-13T15:50:04.993Z,18.12
2018-12-13T15:52:33.388Z,15.80
2018-12-13T15:55:02.217Z,16.67
2018-12-13T15:57:30.877Z,20.50
2018-12-13T15:59:59.323Z,12.40
2018-12-13T16:02:27.663Z,16.17
2018-12-13T16:04:56.380Z,12.47
2018-12-13T16:07:24.809Z,14.70
2018-12-13T16:09:53.456Z,27.15
2018-12-13T16:12:21.827Z,21.15
2018-12-13T16:14:50.194Z,13.32
2018-12-13T16:17:18.561Z,14.70
2018-12-13T16:19:46.949Z,15.90
2018-12-13T16:22:15.625Z,13.62
2018-12-13T16:24:43.968Z,17.62
2018-12-13T16:27:12.683Z,20.82
2018-12-13T16:29:41.068Z,21.52
2018-12-13T16:32:09.433Z,19.65
2018-12-13T16:34:37.803Z,16.25
2018-12-13T16:37:06.206Z,14.60
2018-12-13T16:39:34.592Z,22.52
2018-12-13T16:42:03.031Z,17.60
2018-12-13T16:44:31.495Z,19.87
2018-12-13T16:46:59.860Z,18.20
2018-12-13T16:49:28.705Z,18.17
2018-12-13T16:51:57.145Z,45.55
2018-12-13T16:54:25.534Z,21.07
2018-12-13T16:56:54.163Z,19.70
2018-12-13T16:59:22.541Z,20.57
2018-12-13T17:01:51.178Z,19.50
2018-12-13T17:04:19.633Z,18.98
2018-12-13T17:06:48.034Z,19.80
2018-12-13T17:09:16.404Z,16.37
2018-12-13T17:11:44.777Z,18.07
2018-12-13T17:14:13.170Z,21.02
2018-12-13T17:16:41.542Z,19.75
2018-12-13T17:19:09.939Z,22.98
2018-12-13T17:21:38.336Z,21.60
2018-12-13T17:24:06.718Z,18.45
2018-12-13T17:26:35.086Z,19.10
2018-12-13T17:29:03.744Z,21.52
2018-12-13T17:31:32.306Z,25.90
2018-12-13T17:34:00.773Z,27.85
2018-12-13T17:36:29.151Z,24.20
2018-12-13T17:38:57.524Z,18.27
2018-12-13T17:41:26.206Z,30.12
2018-12-13T17:43:54.916Z,45.23
2018-12-13T17:46:23.329Z,26.05
2018-12-13T17:48:51.930Z,19.70
2018-12-13T17:51:20.329Z,30.45
2018-12-13T17:53:48.754Z,23.92
2018-12-13T17:56:17.152Z,19.92
2018-12-13T17:58:45.558Z,22.67
2018-12-13T18:01:14.035Z,24.43
2018-12-13T18:03:42.450Z,24.80
2018-12-13T18:06:11.183Z,24.75
2018-12-13T18:08:39.597Z,21.87
2018-12-13T18:11:07.976Z,22.80
2018-12-13T18:13:36.395Z,24.72
2018-12-13T18:22:49.157Z,23.02
2018-12-13T18:25:17.667Z,29.18
2018-12-13T18:27:46.442Z,22.93
2018-12-13T18:30:14.890Z,29.00
2018-12-13T18:32:43.671Z,28.05
2018-12-13T18:35:12.040Z,20.80
2018-12-13T18:37:40.904Z,24.20
2018-12-13T18:40:09.637Z,24.27
2018-12-13T18:42:38.014Z,27.95
2018-12-13T18:45:06.890Z,25.70
2018-12-13T18:47:35.302Z,33.00
2018-12-13T18:50:04.037Z,24.40
2018-12-13T18:52:32.503Z,31.50
2018-12-13T18:55:00.868Z,26.93
2018-12-13T18:57:29.479Z,31.42
2018-12-13T18:59:57.920Z,29.72
2018-12-13T19:02:26.561Z,32.95
2018-12-13T19:04:54.964Z,29.60
2018-12-13T19:07:23.492Z,33.98
2018-12-13T19:09:51.954Z,25.12
2018-12-13T19:12:20.380Z,27.87
2018-12-13T19:14:49.040Z,27.42
2018-12-13T19:17:17.742Z,28.77
2018-12-13T19:19:46.173Z,37.75
2018-12-13T19:22:14.779Z,30.65
2018-12-13T19:24:43.185Z,28.27
2018-12-13T19:27:11.670Z,31.17
2018-12-13T19:29:40.297Z,25.77
2018-12-13T19:32:08.682Z,32.10
2018-12-13T19:34:37.043Z,37.60
2018-12-13T19:37:05.459Z,39.18
2018-12-13T19:39:33.833Z,37.98
2018-12-13T19:42:02.492Z,36.68
2018-12-13T19:44:30.932Z,38.13
2018-12-13T19:46:59.325Z,30.25
2018-12-13T19:49:27.727Z,45.80
2018-12-13T19:51:56.115Z,37.80
2018-12-13T19:54:24.545Z,35.58
2018-12-13T19:56:52.975Z,33.25
2018-12-13T19:59:21.665Z,32.00
2018-12-13T20:01:50.064Z,26.10
2018-12-13T20:04:18.820Z,34.85
2018-12-13T20:06:47.410Z,34.67
2018-12-13T20:09:15.801Z,36.48
2018-12-13T20:11:44.411Z,36.70
2018-12-13T20:14:12.926Z,36.70
2018-12-13T20:16:42.163Z,27.13
2018-12-13T20:19:10.543Z,27.52
2018-12-13T20:21:39.350Z,43.33
2018-12-13T20:24:08.167Z,26.95
2018-12-13T20:26:36.789Z,36.63
2018-12-13T20:29:05.183Z,43.73
2018-12-13T20:31:33.791Z,32.58
2018-12-13T20:34:02.178Z,30.85
2018-12-13T20:36:30.834Z,40.25
2018-12-13T20:38:59.229Z,33.83
2018-12-13T20:41:27.612Z,33.10
2018-12-13T20:43:56.264Z,35.95
2018-12-13T20:46:24.736Z,34.90
2018-12-13T20:48:53.107Z,36.05
2018-12-13T20:51:21.503Z,46.85
2018-12-13T20:53:49.895Z,29.48
2018-12-13T20:56:18.300Z,31.30
2018-12-13T20:58:47.152Z,28.92
2018-12-13T21:01:15.720Z,29.57
2018-12-13T21:03:44.534Z,35.75
2018-12-13T21:06:12.932Z,34.58
2018-12-13T21:08:41.356Z,32.40
2018-12-13T21:11:09.762Z,32.70
2018-12-13T21:13:38.675Z,30.90
2018-12-13T21:16:07.033Z,37.60
2018-12-13T21:18:35.779Z,33.35
2018-12-13T21:21:04.397Z,30.15
2018-12-13T21:23:32.801Z,31.02
2018-12-13T21:26:01.179Z,32.85
2018-12-13T21:28:30.141Z,31.65
2018-12-13T21:30:58.779Z,25.23
2018-12-13T21:33:27.177Z,34.70
2018-12-13T21:35:55.568Z,27.50
2018-12-13T21:38:23.954Z,30.30
2018-12-13T21:40:52.572Z,35.28
2018-12-13T21:43:20.970Z,36.70
2018-12-13T21:45:49.348Z,36.93
2018-12-13T21:48:17.830Z,36.60
2018-12-13T21:50:46.231Z,29.55
2018-12-13T21:53:14.730Z,27.40
2018-12-13T21:55:43.125Z,31.37
2018-12-13T21:58:11.677Z,45.75
2018-12-13T22:00:40.056Z,31.70
2018-12-13T22:03:08.422Z,39.38
2018-12-13T22:05:36.808Z,45.35
2018-12-13T22:08:05.214Z,32.55
2018-12-13T22:10:33.572Z,36.35
2018-12-13T22:13:01.972Z,30.43
2018-12-13T22:15:30.420Z,33.75
2018-12-13T22:17:58.988Z,42.05
2018-12-13T22:20:27.424Z,42.05
2018-12-13T22:22:55.823Z,49.58
2018-12-13T22:25:24.417Z,34.40
2018-12-13T22:27:52.836Z,39.75
2018-12-13T22:30:21.763Z,41.30
2018-12-13T22:32:50.127Z,27.42
2018-12-13T22:35:18.768Z,47.38
2018-12-13T22:37:47.139Z,46.83
2018-12-13T22:40:15.515Z,48.38
2018-12-13T22:42:44.054Z,41.48
2018-12-13T22:45:12.654Z,44.88
2018-12-13T22:47:41.056Z,31.80
2018-12-13T22:50:09.477Z,43.52
2018-12-13T22:52:38.783Z,39.25
2018-12-13T22:55:07.284Z,39.38
2018-12-13T22:57:35.888Z,41.58
2018-12-13T23:00:06.396Z,38.83
2018-12-13T23:02:35.032Z,47.03
2018-12-13T23:05:03.673Z,38.13
2018-12-13T23:07:32.119Z,41.08
2018-12-13T23:10:00.459Z,31.20
2018-12-13T23:12:28.859Z,43.98
2018-12-13T23:14:57.215Z,41.08
2018-12-13T23:17:25.936Z,49.75
2018-12-13T23:19:54.324Z,34.80
2018-12-13T23:22:22.707Z,43.13
2018-12-13T23:24:51.051Z,42.93
2018-12-13T23:27:19.445Z,43.28
2018-12-13T23:29:47.847Z,42.78
2018-12-13T23:32:16.460Z,37.08
2018-12-13T23:34:44.839Z,43.50
2018-12-13T23:37:13.201Z,42.90
2018-12-13T23:39:41.573Z,43.63
2018-12-13T23:42:09.970Z,32.53
2018-12-13T23:44:38.688Z,34.43
2018-12-13T23:47:07.031Z,42.67
2018-12-13T23:49:35.425Z,36.30
2018-12-13T23:52:03.911Z,36.38
2018-12-13T23:54:32.285Z,41.85
2018-12-13T23:57:00.662Z,35.95
2018-12-13T23:59:29.011Z,38.33
